Time;durP1;ratioP1;P1;durP2;ratioP2;P2;SDS_P1;SDS_P2;PMS_P1;PMS_P2;Temp;Humidity;BMP_temperature;BMP_pressure;BME280_temperature;BME280_humidity;BME280_pressure;Samples;Min_cycle;Max_cycle;Signal;HPM_P1;HPM_P2
2023/09/04 00:00:02;;;;;;;4.30;1.23;;;;;;;25.25;28.97;99826.09;4996702;28;20081;-71
2023/09/04 00:02:28;;;;;;;4.60;1.70;;;;;;;25.15;28.60;99815.97;4997134;28;20391;-71
2023/09/04 00:04:54;;;;;;;5.73;1.47;;;;;;;25.20;28.54;99812.94;4997221;28;20022;-71
2023/09/04 00:07:20;;;;;;;4.97;1.50;;;;;;;25.22;28.69;99822.66;4996992;28;20392;-71
2023/09/04 00:09:45;;;;;;;4.67;1.63;;;;;;;25.18;28.79;99813.03;4996682;28;20034;-71
2023/09/04 00:12:11;;;;;;;5.80;1.50;;;;;;;25.17;28.58;99819.41;4996733;28;20047;-71
2023/09/04 00:14:36;;;;;;;4.63;1.30;;;;;;;25.17;28.62;99824.78;4996787;28;20538;-72
2023/09/04 00:17:01;;;;;;;4.03;1.40;;;;;;;25.17;29.16;99814.00;4996768;28;20043;-71
2023/09/04 00:19:27;;;;;;;5.15;1.50;;;;;;;25.15;28.67;99831.28;4994350;28;20027;-71
2023/09/04 00:21:53;;;;;;;4.70;1.50;;;;;;;25.13;28.80;99822.44;4997098;28;20030;-71
2023/09/04 00:24:20;;;;;;;4.75;1.80;;;;;;;25.11;28.83;99819.84;4996659;28;20031;-71
2023/09/04 00:26:45;;;;;;;4.10;1.50;;;;;;;25.08;28.78;99812.00;4996939;28;20031;-71
2023/09/04 00:29:11;;;;;;;4.85;1.70;;;;;;;25.03;29.15;99817.72;4996894;28;20101;-71
2023/09/04 00:31:36;;;;;;;4.97;1.50;;;;;;;25.00;28.84;99812.53;4996724;28;20114;-71
2023/09/04 00:34:02;;;;;;;5.27;1.57;;;;;;;24.99;29.31;99815.38;4996732;28;20022;-71
2023/09/04 00:36:27;;;;;;;6.03;1.48;;;;;;;24.92;28.67;99807.72;4996887;28;20026;-72
2023/09/04 00:38:53;;;;;;;5.03;1.47;;;;;;;24.93;28.60;99804.03;4995192;28;20034;-71
2023/09/04 00:41:19;;;;;;;5.03;1.70;;;;;;;24.92;29.18;99802.31;4996635;28;20030;-71
2023/09/04 00:43:44;;;;;;;3.88;1.17;;;;;;;24.93;29.11;99816.66;4996637;28;20109;-71
2023/09/04 00:46:11;;;;;;;3.93;1.40;;;;;;;24.87;28.61;99812.56;4996861;28;20030;-71
2023/09/04 00:48:38;;;;;;;5.70;1.55;;;;;;;24.90;29.07;99812.34;4996712;28;20101;-71
2023/09/04 00:51:04;;;;;;;5.93;1.30;;;;;;;24.88;29.19;99805.38;4996638;28;20072;-71
2023/09/04 00:53:30;;;;;;;5.60;1.50;;;;;;;24.88;28.66;99799.97;4996325;28;20094;-71
2023/09/04 00:55:56;;;;;;;4.85;1.17;;;;;;;24.87;28.77;99807.19;4996370;28;20128;-71
2023/09/04 00:58:22;;;;;;;7.50;1.40;;;;;;;24.87;29.35;99807.19;4996375;28;20027;-71
2023/09/04 01:00:47;;;;;;;4.95;1.52;;;;;;;24.83;28.78;99800.31;4996625;28;20022;-71
2023/09/04 01:03:13;;;;;;;6.70;1.60;;;;;;;24.81;29.36;99804.94;4996722;28;20180;-71
2023/09/04 01:05:39;;;;;;;5.30;1.60;;;;;;;24.80;28.98;99795.97;4996282;28;20510;-71
2023/09/04 01:08:05;;;;;;;4.67;1.50;;;;;;;24.77;28.92;99800.75;4996650;28;20271;-71
2023/09/04 01:10:59;;;;;;;4.63;1.48;;;;;;;24.74;28.78;99790.16;4995889;28;20030;-71
2023/09/04 01:13:32;;;;;;;5.32;1.60;;;;;;;24.70;29.27;99804.78;4995493;28;20054;-71
2023/09/04 01:15:59;;;;;;;5.20;1.60;;;;;;;24.74;29.24;99800.94;5000023;28;20030;-71
2023/09/04 01:18:24;;;;;;;6.03;1.70;;;;;;;24.78;28.97;99802.47;4997401;28;20026;-71
2023/09/04 01:21:19;;;;;;;6.20;2.05;;;;;;;24.74;29.29;99803.63;5000173;28;20250;-71
2023/09/04 01:23:44;;;;;;;4.77;1.30;;;;;;;24.72;28.95;99803.72;4990883;28;20121;-71
2023/09/04 01:26:34;;;;;;;7.20;1.50;;;;;;;24.66;29.00;99796.94;4999937;28;20066;-71
2023/09/04 01:29:16;;;;;;;7.83;1.57;;;;;;;24.71;28.68;99801.13;4999882;28;20034;-71
2023/09/04 01:31:50;;;;;;;5.22;1.60;;;;;;;24.69;29.06;99803.06;4999691;28;20064;-71
2023/09/04 01:34:24;;;;;;;5.22;1.63;;;;;;;24.69;29.07;99808.44;4999740;28;20491;-71
2023/09/04 01:36:52;;;;;;;4.88;1.52;;;;;;;24.68;28.67;99802.22;4999740;28;20027;-71
2023/09/04 01:39:18;;;;;;;5.60;1.75;;;;;;;24.63;28.65;99813.31;4999162;28;20129;-71
2023/09/04 01:41:43;;;;;;;5.13;1.60;;;;;;;24.65;28.51;99811.38;4998177;28;20112;-71
2023/09/04 01:44:08;;;;;;;5.22;1.63;;;;;;;24.63;28.36;99799.84;4999523;28;20077;-71
2023/09/04 01:46:34;;;;;;;5.57;1.90;;;;;;;24.59;28.04;99806.44;4999188;28;20045;-71
2023/09/04 01:49:00;;;;;;;6.33;1.60;;;;;;;24.58;27.95;99802.00;4999863;28;20022;-71
2023/09/04 01:51:25;;;;;;;6.32;1.73;;;;;;;24.62;28.27;99799.97;4998130;28;20045;-71
2023/09/04 01:53:51;;;;;;;5.17;1.80;;;;;;;24.67;27.71;99795.13;4999349;28;20063;-71
2023/09/04 01:56:16;;;;;;;5.70;1.70;;;;;;;24.61;28.14;99809.88;4999152;28;20033;-71
2023/09/04 01:58:41;;;;;;;5.82;1.60;;;;;;;24.63;28.23;99799.84;4999296;28;20022;-71
2023/09/04 02:01:07;;;;;;;6.33;1.70;;;;;;;24.61;28.27;99799.09;4999329;28;20553;-71
2023/09/04 02:03:33;;;;;;;4.47;1.63;;;;;;;24.60;28.29;99805.44;4999071;28;20022;-71
2023/09/04 02:05:58;;;;;;;6.32;2.00;;;;;;;24.57;28.32;99811.06;4999114;28;20149;-71
2023/09/04 02:08:24;;;;;;;5.40;1.73;;;;;;;24.55;28.59;99809.44;4998923;28;20037;-71
2023/09/04 02:10:49;;;;;;;5.33;1.70;;;;;;;24.52;28.68;99797.91;4999116;28;20483;-71
2023/09/04 02:13:15;;;;;;;4.63;1.58;;;;;;;24.49;28.43;99802.66;4998779;28;20117;-71
2023/09/04 02:15:40;;;;;;;7.00;1.60;;;;;;;24.49;28.22;99802.66;4998965;28;20049;-71
2023/09/04 02:18:06;;;;;;;5.87;1.60;;;;;;;24.47;28.29;99810.84;4996244;28;20058;-71
2023/09/04 02:20:32;;;;;;;4.80;1.50;;;;;;;24.41;28.38;99796.94;4999023;28;20019;-71
2023/09/04 02:22:58;;;;;;;6.00;1.85;;;;;;;24.41;28.23;99796.94;4998471;28;20018;-71
2023/09/04 02:25:24;;;;;;;6.40;1.50;;;;;;;24.38;28.40;99784.59;4998534;28;20038;-71
2023/09/04 02:27:50;;;;;;;5.53;2.00;;;;;;;24.33;27.57;99786.72;4998923;28;20078;-71
2023/09/04 02:30:16;;;;;;;6.60;1.60;;;;;;;24.34;27.73;99789.31;4998702;28;20495;-71
2023/09/04 02:32:42;;;;;;;5.83;1.73;;;;;;;24.32;27.83;99783.16;4998856;28;20027;-71
2023/09/04 02:35:08;;;;;;;7.15;1.88;;;;;;;24.30;27.67;99777.03;4998594;28;20054;-71
2023/09/04 02:37:34;;;;;;;7.07;1.83;;;;;;;24.32;27.36;99772.41;4998506;28;20030;-71
2023/09/04 02:39:59;;;;;;;5.93;1.80;;;;;;;24.32;27.52;99787.66;4998206;28;20028;-71
2023/09/04 02:42:27;;;;;;;4.67;1.80;;;;;;;24.31;26.97;99781.44;4998412;28;20026;-71
2023/09/04 02:44:53;;;;;;;5.63;1.90;;;;;;;24.31;27.47;99784.13;4997077;28;20486;-71
2023/09/04 02:47:18;;;;;;;6.20;1.90;;;;;;;24.29;27.57;99790.59;4998410;28;20077;-71
2023/09/04 02:49:44;;;;;;;6.00;1.80;;;;;;;24.27;27.55;99774.56;4996909;28;20057;-71
2023/09/04 02:52:11;;;;;;;5.03;1.90;;;;;;;24.22;27.50;99776.69;4998337;28;20033;-71
2023/09/04 02:54:36;;;;;;;6.50;1.80;;;;;;;24.22;27.27;99784.75;4996725;28;20030;-71
2023/09/04 02:57:02;;;;;;;5.53;1.92;;;;;;;24.19;27.33;99779.59;4997818;28;20028;-71
2023/09/04 02:59:28;;;;;;;5.23;1.70;;;;;;;24.17;27.29;99779.72;4998219;28;20026;-71
2023/09/04 03:01:53;;;;;;;6.70;1.50;;;;;;;24.17;27.46;99785.09;4997953;28;20257;-71
2023/09/04 03:04:19;;;;;;;5.40;1.90;;;;;;;24.12;27.31;99781.88;4998254;28;20497;-71
2023/09/04 03:06:44;;;;;;;5.90;1.88;;;;;;;24.11;27.86;99773.88;4997876;28;20018;-71
2023/09/04 03:09:10;;;;;;;6.07;2.00;;;;;;;24.10;27.78;99781.09;4996445;28;20084;-71
2023/09/04 03:11:35;;;;;;;4.97;1.80;;;;;;;24.06;27.83;99775.06;4997735;28;20136;-71
2023/09/04 03:14:01;;;;;;;5.97;1.80;;;;;;;24.03;28.09;99780.66;4997976;28;20030;-71
2023/09/04 03:16:27;;;;;;;6.15;1.73;;;;;;;24.00;27.86;99759.34;4997855;28;20034;-71
2023/09/04 03:18:53;;;;;;;4.90;1.87;;;;;;;24.04;28.07;99776.13;4995036;28;20085;-71
2023/09/04 03:21:18;;;;;;;5.53;1.70;;;;;;;24.04;27.76;99776.13;4997774;28;20029;-71
2023/09/04 03:23:46;;;;;;;5.20;1.63;;;;;;;24.06;27.97;99780.44;4997535;28;20561;-71
2023/09/04 03:26:11;;;;;;;5.18;1.67;;;;;;;24.10;27.85;99781.09;4997774;28;20068;-71
2023/09/04 03:28:37;;;;;;;5.33;1.57;;;;;;;24.11;27.94;99782.81;4997688;28;20026;-71
2023/09/04 03:31:02;;;;;;;5.73;1.70;;;;;;;24.11;27.88;99780.13;4997465;28;20603;-71
2023/09/04 03:33:27;;;;;;;7.60;1.87;;;;;;;24.11;27.72;99790.03;4997707;28;20105;-71
2023/09/04 03:35:53;;;;;;;5.53;1.80;;;;;;;24.04;28.09;99782.38;4996865;28;20030;-71
2023/09/04 03:38:19;;;;;;;5.23;1.83;;;;;;;24.10;28.40;99782.94;4997341;28;20026;-71
2023/09/04 03:40:44;;;;;;;6.15;1.70;;;;;;;24.10;28.08;99780.25;4997348;28;20112;-71
2023/09/04 03:43:10;;;;;;;5.73;1.53;;;;;;;24.07;28.06;99787.56;4997441;28;20503;-71
2023/09/04 03:45:35;;;;;;;5.93;1.43;;;;;;;24.06;28.22;99793.03;4996929;28;20029;-71
2023/09/04 03:48:02;;;;;;;6.45;1.70;;;;;;;24.04;28.25;99784.19;4997478;28;20026;-71
2023/09/04 03:50:27;;;;;;;4.40;1.53;;;;;;;24.04;28.41;99776.13;4997356;28;20026;-71
2023/09/04 03:52:53;;;;;;;5.72;1.60;;;;;;;24.01;28.50;99779.00;4997449;28;20109;-71
2023/09/04 03:55:19;;;;;;;6.97;1.70;;;;;;;23.98;28.68;99776.53;4996695;28;20081;-71
2023/09/04 03:57:48;;;;;;;4.80;1.83;;;;;;;23.97;28.48;99781.03;4995687;28;20034;-71
2023/09/04 04:00:16;;;;;;;5.60;1.45;;;;;;;23.93;28.90;99775.03;4995802;28;20033;-71
2023/09/04 04:02:43;;;;;;;4.53;1.70;;;;;;;23.91;28.50;99778.78;4997663;28;20034;-71
2023/09/04 04:05:10;;;;;;;4.70;1.45;;;;;;;23.86;28.67;99771.00;4997338;28;20026;-71
2023/09/04 04:07:35;;;;;;;4.03;1.40;;;;;;;23.88;28.97;99770.91;4997331;28;20026;-71
2023/09/04 04:10:02;;;;;;;4.67;1.40;;;;;;;23.88;29.00;99769.09;4997178;28;20019;-71
2023/09/04 04:12:27;;;;;;;5.22;2.00;;;;;;;23.87;28.84;99769.19;4997364;28;20061;-71
2023/09/04 04:14:54;;;;;;;5.57;1.53;;;;;;;23.83;28.94;99765.84;4997193;28;20030;-71
2023/09/04 04:17:19;;;;;;;5.50;1.50;;;;;;;23.83;29.27;99762.31;4994904;28;20026;-71
2023/09/04 04:19:45;;;;;;;5.30;1.53;;;;;;;23.80;29.15;99755.28;4996903;28;20137;-71
2023/09/04 04:22:10;;;;;;;6.17;1.63;;;;;;;23.77;29.39;99764.44;4997350;28;20045;-71
2023/09/04 04:24:36;;;;;;;4.60;1.20;;;;;;;23.72;29.36;99766.56;4996881;28;20053;-71
2023/09/04 04:27:01;;;;;;;6.03;1.50;;;;;;;23.72;29.31;99771.94;4997311;28;20030;-71
2023/09/04 04:29:27;;;;;;;4.40;1.40;;;;;;;23.71;29.76;99762.16;4996957;28;20026;-71
2023/09/04 04:31:53;;;;;;;5.10;1.50;;;;;;;23.67;29.62;99762.47;4996919;28;20026;-71
2023/09/04 04:34:18;;;;;;;5.30;1.57;;;;;;;23.66;29.75;99761.59;4997110;28;20057;-71
2023/09/04 04:36:43;;;;;;;5.03;1.40;;;;;;;23.65;29.71;99765.25;4997117;28;20097;-71
2023/09/04 04:39:09;;;;;;;4.20;1.40;;;;;;;23.60;30.15;99770.09;4996719;28;20495;-71
2023/09/04 04:41:34;;;;;;;4.50;1.50;;;;;;;23.60;30.19;99764.72;4996926;28;20368;-71
2023/09/04 04:44:00;;;;;;;5.80;1.40;;;;;;;23.57;30.42;99773.81;4996920;28;20029;-71
2023/09/04 04:46:25;;;;;;;6.10;1.70;;;;;;;23.60;30.40;99775.47;4997998;28;20026;-71
2023/09/04 04:48:50;;;;;;;6.78;1.50;;;;;;;23.59;30.55;99776.44;5000916;28;20022;-71
2023/09/04 04:51:16;;;;;;;6.27;1.80;;;;;;;23.54;30.77;99775.88;5001129;28;20077;-71
2023/09/04 04:53:42;;;;;;;6.90;1.63;;;;;;;23.56;30.64;99782.00;5000264;28;20049;-71
2023/09/04 04:56:07;;;;;;;4.95;1.73;;;;;;;23.53;30.61;99776.84;5000510;28;20025;-71
2023/09/04 04:58:33;;;;;;;4.23;1.40;;;;;;;23.50;30.76;99778.75;5000493;28;20035;-71
2023/09/04 05:00:58;;;;;;;6.70;1.60;;;;;;;23.49;30.91;99781.56;5000725;28;20037;-71
2023/09/04 05:03:23;;;;;;;6.70;1.73;;;;;;;23.49;30.91;99782.38;5000505;28;20049;-71
2023/09/04 05:05:49;;;;;;;5.47;1.40;;;;;;;23.48;30.82;99790.56;5000674;28;20034;-71
2023/09/04 05:08:14;;;;;;;6.33;1.60;;;;;;;23.47;30.91;99787.00;5000333;28;20030;-71
2023/09/04 05:10:40;;;;;;;5.40;1.50;;;;;;;23.45;31.08;99782.72;5000533;28;20018;-71
2023/09/04 05:13:05;;;;;;;5.10;1.43;;;;;;;23.45;31.20;99785.41;5000402;28;20053;-71
2023/09/04 05:15:30;;;;;;;5.97;1.60;;;;;;;23.49;31.13;99786.91;5000464;28;20364;-71
2023/09/04 05:17:56;;;;;;;6.50;1.87;;;;;;;23.46;31.14;99776.38;4998048;28;20829;-71
2023/09/04 05:20:21;;;;;;;4.53;1.40;;;;;;;23.44;31.48;99763.03;5000449;28;20033;-71
2023/09/04 05:22:46;;;;;;;5.60;1.70;;;;;;;23.43;31.39;99771.22;5000402;28;20043;-71
2023/09/04 05:25:12;;;;;;;5.57;1.70;;;;;;;23.43;31.64;99764.00;5000134;28;20037;-71
2023/09/04 05:27:37;;;;;;;7.80;1.90;;;;;;;23.44;32.07;99768.41;5000136;28;20093;-71
2023/09/04 05:30:04;;;;;;;5.70;1.93;;;;;;;23.47;31.78;99762.81;5000312;28;20034;-71
2023/09/04 05:32:30;;;;;;;5.60;1.80;;;;;;;23.49;32.10;99760.91;5000108;28;20023;-71
2023/09/04 05:34:56;;;;;;;4.80;1.50;;;;;;;23.51;31.97;99764.38;5000124;28;20027;-71
2023/09/04 05:37:22;;;;;;;7.78;2.17;;;;;;;23.51;32.37;99769.75;5000017;28;20019;-71
2023/09/04 05:39:48;;;;;;;5.68;1.85;;;;;;;23.58;32.26;99772.03;4999651;28;20092;-70
2023/09/04 05:42:13;;;;;;;7.07;1.73;;;;;;;23.59;32.41;99765.69;4999801;28;20026;-71
2023/09/04 05:44:38;;;;;;;7.13;2.00;;;;;;;23.57;32.75;99767.59;4999698;28;20403;-71
2023/09/04 05:47:04;;;;;;;5.40;1.60;;;;;;;23.62;33.01;99760.09;4999340;28;20749;-71
2023/09/04 05:49:29;;;;;;;5.30;1.90;;;;;;;23.63;33.18;99751.06;4997434;28;20061;-70
2023/09/04 05:51:54;;;;;;;6.60;1.80;;;;;;;23.62;33.50;99765.47;4998429;28;20079;-71
2023/09/04 05:54:21;;;;;;;6.90;1.90;;;;;;;23.61;33.81;99761.06;4999564;28;20026;-71
2023/09/04 05:56:46;;;;;;;7.97;1.80;;;;;;;23.65;33.95;99755.38;4999356;28;20029;-71
2023/09/04 05:59:14;;;;;;;4.67;1.63;;;;;;;23.69;33.96;99764.09;4991550;28;20029;-70
2023/09/04 06:01:39;;;;;;;6.75;1.83;;;;;;;23.70;34.39;99757.75;4996840;28;20031;-69
2023/09/04 06:04:05;;;;;;;8.23;1.83;;;;;;;23.73;34.48;99754.84;4999681;28;20518;-70
2023/09/04 06:06:30;;;;;;;6.28;1.80;;;;;;;23.79;34.75;99756.25;4998108;28;20030;-71
2023/09/04 06:08:56;;;;;;;6.73;2.00;;;;;;;23.79;34.36;99757.13;4997337;28;20522;-71
2023/09/04 06:11:21;;;;;;;6.67;1.90;;;;;;;23.84;34.82;99755.97;4995768;28;20022;-71
2023/09/04 06:13:48;;;;;;;7.90;2.08;;;;;;;23.86;34.87;99745.97;4997986;28;20061;-71
2023/09/04 06:16:17;;;;;;;6.07;1.80;;;;;;;23.90;34.97;99752.84;4998176;28;20031;-71
2023/09/04 06:18:42;;;;;;;6.93;1.90;;;;;;;23.97;35.51;99748.75;4989936;28;20106;-70
2023/09/04 06:21:07;;;;;;;5.87;1.83;;;;;;;24.04;35.62;99749.25;4997794;28;20053;-71
2023/09/04 06:23:33;;;;;;;7.57;1.83;;;;;;;24.10;35.85;99756.03;4998345;28;20026;-71
2023/09/04 06:26:03;;;;;;;6.30;1.80;;;;;;;24.14;36.08;99746.78;4998636;28;20026;-71
2023/09/04 06:28:29;;;;;;;6.43;1.70;;;;;;;24.18;36.29;99745.59;4994621;28;20018;-71
2023/09/04 06:30:57;;;;;;;6.23;1.70;;;;;;;24.21;36.78;99757.00;4990487;28;20476;-72
2023/09/04 06:33:26;;;;;;;5.78;1.98;;;;;;;24.24;36.55;99737.13;4999134;28;20026;-71
2023/09/04 06:35:52;;;;;;;7.97;2.08;;;;;;;24.25;36.74;99728.06;4998762;28;20031;-71
2023/09/04 06:38:17;;;;;;;6.47;1.90;;;;;;;24.35;36.79;99731.81;4998358;28;20030;-72
2023/09/04 06:40:43;;;;;;;6.35;1.80;;;;;;;24.37;36.89;99723.66;4997459;28;20141;-71
2023/09/04 06:43:09;;;;;;;6.80;1.93;;;;;;;24.43;37.29;99730.41;4998861;28;20096;-70
2023/09/04 06:45:38;;;;;;;6.53;1.80;;;;;;;24.47;37.54;99745.38;4997673;28;20029;-70
2023/09/04 06:48:06;;;;;;;5.90;2.22;;;;;;;24.49;37.65;99738.06;4998392;28;20111;-69
2023/09/04 06:50:32;;;;;;;8.03;1.90;;;;;;;24.60;37.51;99729.22;4993605;28;20029;-70
2023/09/04 06:52:57;;;;;;;8.63;2.20;;;;;;;24.63;37.31;99734.41;4997090;28;20415;-70
2023/09/04 06:55:22;;;;;;;7.70;1.70;;;;;;;24.73;37.00;99734.59;4997818;28;20076;-70
2023/09/04 06:57:48;;;;;;;6.70;2.10;;;;;;;24.83;37.19;99746.44;4998111;28;20032;-70
2023/09/04 07:00:13;;;;;;;5.40;1.73;;;;;;;24.88;37.01;99730.81;4998236;28;20395;-70
2023/09/04 07:02:39;;;;;;;6.07;1.90;;;;;;;24.90;37.26;99720.78;4998620;28;20088;-70
2023/09/04 07:05:07;;;;;;;6.30;2.53;;;;;;;24.95;37.66;99725.84;4998395;28;20830;-70
2023/09/04 07:07:35;;;;;;;6.55;2.00;;;;;;;25.00;37.51;99718.28;4998270;28;20014;-70
2023/09/04 07:10:02;;;;;;;7.38;1.77;;;;;;;25.05;37.55;99718.78;4997937;28;20030;-69
2023/09/04 07:12:29;;;;;;;7.05;1.98;;;;;;;25.07;37.04;99718.69;4998265;28;20057;-69
2023/09/04 07:14:55;;;;;;;7.23;2.13;;;;;;;25.14;36.93;99717.25;4998084;28;20026;-69
2023/09/04 07:17:20;;;;;;;8.82;1.88;;;;;;;25.23;37.26;99715.72;4995651;28;20546;-69
2023/09/04 07:19:45;;;;;;;8.37;2.37;;;;;;;25.27;36.79;99716.34;4997771;28;20492;-69
2023/09/04 07:22:11;;;;;;;8.60;2.20;;;;;;;25.31;36.93;99715.13;4998215;28;20062;-69
2023/09/04 07:24:36;;;;;;;6.13;1.90;;;;;;;25.40;36.86;99711.75;4997858;28;20033;-69
2023/09/04 07:27:02;;;;;;;7.47;2.33;;;;;;;25.47;36.37;99712.19;4998256;28;20075;-69
2023/09/04 07:29:27;;;;;;;6.10;2.27;;;;;;;25.58;36.73;99723.03;4996540;28;20261;-69
2023/09/04 07:31:53;;;;;;;5.47;2.10;;;;;;;25.69;36.71;99727.59;4997742;28;20022;-69
2023/09/04 07:34:19;;;;;;;6.15;1.95;;;;;;;25.78;36.43;99729.59;4997805;28;20549;-69
2023/09/04 07:36:44;;;;;;;10.27;2.63;;;;;;;25.80;36.17;99714.13;4997923;28;20125;-69
2023/09/04 07:39:10;;;;;;;9.48;2.40;;;;;;;25.88;36.55;99718.06;4997263;28;20028;-69
2023/09/04 07:41:35;;;;;;;7.10;2.30;;;;;;;25.91;36.44;99724.09;4997325;28;20097;-69
2023/09/04 07:44:00;;;;;;;7.93;2.10;;;;;;;26.01;36.53;99737.75;4995525;28;20058;-70
2023/09/04 07:46:26;;;;;;;8.40;2.17;;;;;;;26.02;36.50;99728.66;5000476;28;20423;-70
2023/09/04 07:48:51;;;;;;;9.83;2.23;;;;;;;26.11;36.08;99731.59;4995123;28;20105;-70
2023/09/04 07:51:19;;;;;;;7.30;2.20;;;;;;;26.21;36.53;99720.00;4989277;28;20274;-70
2023/09/04 07:53:44;;;;;;;10.10;1.98;;;;;;;26.32;36.12;99724.56;4994156;28;20030;-70
2023/09/04 07:56:11;;;;;;;7.97;1.83;;;;;;;26.37;35.95;99716.94;4996340;28;20030;-70
2023/09/04 07:58:39;;;;;;;6.55;2.20;;;;;;;26.43;35.73;99725.56;4996918;28;20480;-70
2023/09/04 08:01:05;;;;;;;7.85;2.50;;;;;;;26.40;36.18;99731.19;4995233;28;20034;-70
2023/09/04 08:03:30;;;;;;;5.77;2.20;;;;;;;26.53;35.86;99721.13;4996823;28;20026;-70
2023/09/04 08:05:56;;;;;;;9.50;2.20;;;;;;;26.57;35.69;99717.22;4996442;28;20014;-70
2023/09/04 08:08:21;;;;;;;6.73;2.23;;;;;;;26.73;35.31;99734.88;4996505;28;20053;-70
2023/09/04 08:10:50;;;;;;;8.48;2.60;;;;;;;26.80;35.31;99725.28;4996382;28;20018;-70
2023/09/04 08:13:20;;;;;;;8.40;2.60;;;;;;;26.95;35.04;99725.91;4995876;28;20112;-65
2023/09/04 08:15:46;;;;;;;12.25;2.92;;;;;;;27.00;35.21;99712.88;4994726;28;20027;-62
2023/09/04 08:18:12;;;;;;;9.20;2.83;;;;;;;27.15;34.65;99721.59;4996464;28;20030;-63
2023/09/04 08:20:38;;;;;;;11.20;2.50;;;;;;;27.26;34.49;99722.53;4996004;28;20027;-63
2023/09/04 08:23:04;;;;;;;7.18;2.33;;;;;;;27.29;34.41;99722.28;4995100;28;20034;-63
2023/09/04 08:25:31;;;;;;;8.73;2.50;;;;;;;27.37;34.52;99717.94;4996348;28;20033;-62
2023/09/04 08:27:57;;;;;;;22.13;3.60;;;;;;;27.30;34.60;99724.00;4995762;28;20089;-63
2023/09/04 08:30:23;;;;;;;6.60;2.30;;;;;;;27.42;34.23;99722.97;4990164;28;20034;-62
2023/09/04 08:32:48;;;;;;;8.05;2.20;;;;;;;27.42;34.10;99705.88;4996333;28;20018;-63
2023/09/04 08:35:14;;;;;;;10.43;2.47;;;;;;;27.43;34.37;99713.88;4996537;28;20080;-62
2023/09/04 08:37:39;;;;;;;9.10;2.50;;;;;;;27.49;34.00;99723.28;4996366;28;20058;-62
2023/09/04 08:40:06;;;;;;;11.30;2.88;;;;;;;27.56;34.17;99727.25;4995911;28;20046;-62
2023/09/04 08:42:31;;;;;;;11.30;2.40;;;;;;;27.63;34.05;99720.31;4996320;28;20026;-62
2023/09/04 08:44:58;;;;;;;11.00;2.42;;;;;;;27.69;33.70;99707.25;4996175;28;20096;-63
2023/09/04 08:47:23;;;;;;;6.97;2.30;;;;;;;27.63;33.42;99724.91;4995555;28;20026;-63
2023/09/04 08:49:51;;;;;;;7.27;2.30;;;;;;;27.72;33.91;99713.28;4996494;28;20033;-63
2023/09/04 08:52:17;;;;;;;5.80;2.00;;;;;;;27.86;33.59;99720.22;4996438;28;20069;-63
2023/09/04 08:54:43;;;;;;;7.22;2.25;;;;;;;27.93;33.40;99721.38;4995556;28;20034;-63
2023/09/04 08:57:09;;;;;;;7.23;2.33;;;;;;;28.03;33.50;99737.69;4994086;28;20030;-63
2023/09/04 08:59:34;;;;;;;6.60;2.00;;;;;;;28.14;33.15;99728.66;4996758;28;20479;-63
2023/09/04 09:02:04;;;;;;;9.55;2.25;;;;;;;28.24;32.38;99717.91;4996509;28;20034;-63
2023/09/04 09:04:34;;;;;;;9.43;2.33;;;;;;;28.34;32.65;99721.53;4996839;28;20030;-63
2023/09/04 09:07:01;;;;;;;7.80;2.00;;;;;;;28.42;31.91;99733.53;4996138;28;20187;-63
2023/09/04 09:09:28;;;;;;;7.03;2.28;;;;;;;28.51;31.79;99740.84;4996269;28;20031;-63
2023/09/04 09:11:56;;;;;;;5.93;2.17;;;;;;;28.55;31.89;99726.03;4996714;28;20047;-63
2023/09/04 09:14:26;;;;;;;6.78;2.05;;;;;;;28.71;31.36;99735.50;4996308;28;20045;-64
2023/09/04 09:17:05;;;;;;;25.58;4.75;;;;;;;28.63;30.90;99731.63;4996015;28;20022;-63
2023/09/04 09:19:32;;;;;;;13.30;2.70;;;;;;;28.79;31.16;99749.25;4994133;28;20022;-63
2023/09/04 09:22:30;;;;;;;7.95;2.15;;;;;;;28.74;31.00;99730.69;4996544;28;20049;-63
2023/09/04 09:25:00;;;;;;;6.70;2.05;;;;;;;28.85;30.56;99750.56;4984263;28;20097;-63
2023/09/04 09:27:31;;;;;;;20.58;3.70;;;;;;;28.88;30.23;99732.19;4996133;28;20031;-63
2023/09/04 09:29:59;;;;;;;7.13;2.60;;;;;;;28.88;30.12;99745.72;4996598;28;20036;-63
2023/09/04 09:32:32;;;;;;;7.50;2.10;;;;;;;29.05;30.23;99729.78;4995936;28;20042;-64
2023/09/04 09:35:00;;;;;;;13.15;2.63;;;;;;;29.20;30.43;99747.38;4996780;28;20571;-64
2023/09/04 09:37:29;;;;;;;8.10;2.10;;;;;;;29.24;30.06;99737.09;4999289;28;20073;-65
2023/09/04 09:39:55;;;;;;;6.93;2.00;;;;;;;29.23;29.75;99741.66;4997439;28;20026;-64
2023/09/04 09:42:20;;;;;;;7.47;2.57;;;;;;;29.34;29.67;99758.81;4999716;28;20029;-64
2023/09/04 09:44:46;;;;;;;5.33;1.73;;;;;;;29.44;29.47;99762.41;4999911;28;20031;-64
2023/09/04 09:47:13;;;;;;;9.52;2.45;;;;;;;29.53;29.17;99754.41;4999054;28;20041;-64
2023/09/04 09:49:40;;;;;;;6.95;2.33;;;;;;;29.53;28.87;99740.84;4999722;28;20037;-64
2023/09/04 09:52:10;;;;;;;9.93;2.20;;;;;;;29.65;29.27;99745.16;4999894;28;20479;-64
2023/09/04 09:54:36;;;;;;;9.43;2.35;;;;;;;29.87;28.87;99738.56;4999498;28;20042;-64
2023/09/04 09:57:08;;;;;;;7.97;2.20;;;;;;;29.94;29.08;99730.69;4998808;28;20448;-64
2023/09/04 09:59:36;;;;;;;5.68;2.22;;;;;;;30.13;28.11;99715.41;4997886;28;20244;-64
2023/09/04 10:02:03;;;;;;;7.32;2.22;;;;;;;30.26;28.00;99732.22;4999689;28;20034;-64
2023/09/04 10:04:33;;;;;;;7.80;2.10;;;;;;;30.42;28.00;99730.75;4999622;28;20034;-64
2023/09/04 10:07:00;;;;;;;5.72;2.20;;;;;;;30.56;27.69;99726.69;4999299;28;20108;-64
2023/09/04 10:09:27;;;;;;;9.73;2.30;;;;;;;30.68;27.74;99719.22;4998806;28;20494;-64
2023/09/04 10:12:11;;;;;;;7.07;2.30;;;;;;;30.79;27.25;99722.59;4999446;28;20057;-64
2023/09/04 10:14:41;;;;;;;10.45;2.40;;;;;;;30.81;26.84;99725.19;4999209;28;20459;-64
2023/09/04 10:17:21;;;;;;;8.05;2.50;;;;;;;30.88;26.79;99715.41;4998533;28;20040;-64
2023/09/04 10:19:48;;;;;;;8.50;2.00;;;;;;;30.96;25.74;99719.22;4999186;28;20034;-63
2023/09/04 10:22:22;;;;;;;8.30;2.50;;;;;;;31.00;25.98;99704.34;4998444;28;20072;-65
2023/09/04 10:25:04;;;;;;;5.85;1.98;;;;;;;31.16;26.07;99706.38;4997687;28;20026;-64
2023/09/04 10:27:34;;;;;;;7.38;2.00;;;;;;;31.31;26.18;99712.16;4999128;28;20030;-64
2023/09/04 10:30:05;;;;;;;7.88;2.00;;;;;;;31.43;26.17;99708.19;4998932;28;20502;-64
2023/09/04 10:32:33;;;;;;;6.95;1.90;;;;;;;31.49;25.84;99729.34;4998778;28;20085;-64
2023/09/04 10:34:59;;;;;;;6.90;2.33;;;;;;;31.56;25.39;99718.66;4998813;28;20117;-64
2023/09/04 10:37:28;;;;;;;9.65;2.42;;;;;;;31.67;25.40;99712.13;4998864;28;20061;-64
2023/09/04 10:39:54;;;;;;;7.30;2.20;;;;;;;31.67;24.79;99703.97;4998333;28;20515;-63
2023/09/04 10:42:23;;;;;;;6.97;2.10;;;;;;;31.75;25.02;99701.31;4998837;28;20050;-64
2023/09/04 10:44:51;;;;;;;7.57;2.10;;;;;;;31.71;24.48;99689.06;4998448;28;20153;-65
2023/09/04 10:47:18;;;;;;;7.78;2.17;;;;;;;31.64;24.43;99705.16;4998263;28;20018;-65
2023/09/04 10:49:44;;;;;;;7.85;2.10;;;;;;;31.72;25.03;99696.19;4997198;28;20030;-65
2023/09/04 10:52:11;;;;;;;7.43;2.53;;;;;;;31.70;24.79;99692.75;4998460;28;20109;-65
2023/09/04 10:54:37;;;;;;;8.98;2.13;;;;;;;31.74;25.65;99690.59;4996905;28;20407;-64
2023/09/04 10:57:08;;;;;;;7.77;2.30;;;;;;;31.71;25.46;99686.31;4997818;28;20026;-70
2023/09/04 10:59:55;;;;;;;9.77;2.63;;;;;;;31.75;25.46;99690.44;4998445;28;20078;-69
2023/09/04 11:02:41;;;;;;;10.10;2.30;;;;;;;31.79;25.44;99696.44;4996767;28;20027;-69
2023/09/04 11:05:07;;;;;;;8.13;2.40;;;;;;;31.83;25.44;99680.66;4997881;28;20036;-68
2023/09/04 13:31:48;;;;;;;9.88;2.47;;;;;;;33.82;20.66;99583.00;5127331;27;20402;-85
2023/09/04 13:34:13;;;;;;;9.10;2.10;;;;;;;33.69;20.90;99578.97;5096768;28;20477;-80
2023/09/04 13:36:38;;;;;;;7.13;2.50;;;;;;;33.72;20.84;99588.66;5084594;28;20111;-88
2023/09/04 13:39:04;;;;;;;7.60;2.53;;;;;;;33.85;21.17;99580.78;5084487;28;20109;-88
2023/09/04 13:41:29;;;;;;;8.98;2.22;;;;;;;33.95;20.81;99569.66;5084142;28;20028;-84
2023/09/04 13:43:56;;;;;;;12.70;2.50;;;;;;;34.05;21.00;99566.75;5084523;28;20022;-86
2023/09/04 13:46:21;;;;;;;72.50;8.45;;;;;;;34.20;21.14;99577.78;5084633;28;20019;-84
2023/09/04 13:48:47;;;;;;;40.97;6.67;;;;;;;34.22;20.60;99573.00;5084169;28;20514;-88
2023/09/04 13:51:12;;;;;;;5.73;2.13;;;;;;;34.15;20.74;99572.00;5098049;28;20024;-79
2023/09/04 13:53:42;;;;;;;6.78;2.10;;;;;;;34.12;20.75;99570.47;5106365;28;20233;-83
2023/09/04 13:56:10;;;;;;;9.98;2.20;;;;;;;34.17;21.06;99559.03;5105570;28;20517;-77